Time;durP1;ratioP1;P1;durP2;ratioP2;P2;SDS_P1;SDS_P2;PMS_P1;PMS_P2;Temp;Humidity;BMP_temperature;BMP_pressure;BME280_temperature;BME280_humidity;BME280_pressure;Samples;Min_cycle;Max_cycle;Signal;HPM_P1;HPM_P2
2024/04/02 00:00:42;;;;;;;2.13;0.82;;;;;;;;;;2070423;28;20646;-74
2024/04/02 00:01:47;;;;;;;4.32;0.90;;;;;;;;;;2073176;28;20026;-75
2024/04/02 00:02:48;;;;;;;2.72;0.77;;;;;;;;;;2073237;28;20021;-75
2024/04/02 00:03:49;;;;;;;4.47;0.90;;;;;;;;;;2073233;28;20022;-73
2024/04/02 00:04:51;;;;;;;2.63;0.70;;;;;;;;;;2073187;28;20069;-74
2024/04/02 00:05:52;;;;;;;2.30;0.90;;;;;;;;;;2072894;28;20037;-74
2024/04/02 00:06:54;;;;;;;2.70;0.93;;;;;;;;;;2072610;28;20026;-74
2024/04/02 00:07:55;;;;;;;3.60;0.88;;;;;;;;;;2073286;28;20025;-74
2024/04/02 00:08:56;;;;;;;2.67;1.05;;;;;;;;;;2073323;28;20037;-73
2024/04/02 00:09:58;;;;;;;2.45;0.70;;;;;;;;;;2071656;28;20101;-75
2024/04/02 00:11:03;;;;;;;3.40;0.90;;;;;;;;;;2072623;28;20049;-76
2024/04/02 00:12:04;;;;;;;2.58;0.68;;;;;;;;;;2071197;28;20557;-74
2024/04/02 00:13:06;;;;;;;2.00;0.88;;;;;;;;;;2073156;28;20026;-75
2024/04/02 00:14:07;;;;;;;1.60;0.90;;;;;;;;;;2072632;28;20065;-74
2024/04/02 00:15:09;;;;;;;3.42;1.10;;;;;;;;;;2073305;28;20022;-75
2024/04/02 00:16:10;;;;;;;2.60;0.70;;;;;;;;;;2073197;28;20025;-77
2024/04/02 00:17:12;;;;;;;5.18;1.02;;;;;;;;;;2073187;28;20570;-78
2024/04/02 00:18:15;;;;;;;3.97;0.60;;;;;;;;;;2073191;28;20557;-74
2024/04/02 00:19:16;;;;;;;2.17;0.63;;;;;;;;;;2072489;28;20030;-74
2024/04/02 00:20:18;;;;;;;4.97;0.90;;;;;;;;;;2072520;28;20386;-78
2024/04/02 00:21:20;;;;;;;2.30;0.60;;;;;;;;;;2072787;28;20048;-77
2024/04/02 00:22:21;;;;;;;4.07;0.93;;;;;;;;;;2072861;28;20176;-77
2024/04/02 00:23:23;;;;;;;2.67;0.80;;;;;;;;;;2064575;28;20102;-75
2024/04/02 00:24:24;;;;;;;3.38;0.73;;;;;;;;;;2072493;28;20030;-78
2024/04/02 00:25:26;;;;;;;2.25;0.63;;;;;;;;;;2073225;28;20037;-74
2024/04/02 00:26:28;;;;;;;2.15;0.85;;;;;;;;;;2080511;28;20036;-75
2024/04/02 00:27:31;;;;;;;3.50;0.60;;;;;;;;;;2064091;28;20035;-73
2024/04/02 00:28:32;;;;;;;1.83;0.70;;;;;;;;;;2062366;28;20162;-75
2024/04/02 00:29:34;;;;;;;4.80;0.88;;;;;;;;;;2073064;28;20021;-78
2024/04/02 00:30:36;;;;;;;2.05;0.80;;;;;;;;;;2073126;28;20033;-76
2024/04/02 00:31:38;;;;;;;5.07;1.42;;;;;;;;;;2072526;28;20029;-77
2024/04/02 00:32:40;;;;;;;4.50;1.20;;;;;;;;;;2072430;28;20025;-77
2024/04/02 00:33:42;;;;;;;4.63;0.82;;;;;;;;;;2073143;28;20440;-77
2024/04/02 00:34:43;;;;;;;3.95;0.70;;;;;;;;;;2070716;28;20368;-75
2024/04/02 00:35:45;;;;;;;4.43;0.95;;;;;;;;;;2073238;28;20029;-76
2024/04/02 00:36:46;;;;;;;2.38;0.73;;;;;;;;;;2073190;28;20022;-75
2024/04/02 00:37:51;;;;;;;1.95;0.60;;;;;;;;;;2073105;28;20022;-77
2024/04/02 00:38:52;;;;;;;5.00;1.30;;;;;;;;;;2071584;28;20034;-75
2024/04/02 00:39:59;;;;;;;3.65;0.90;;;;;;;;;;2071638;28;20022;-74
2024/04/02 00:41:01;;;;;;;2.35;1.02;;;;;;;;;;2073005;28;20018;-75
2024/04/02 00:42:02;;;;;;;3.90;0.80;;;;;;;;;;2070527;28;20068;-74
2024/04/02 00:43:07;;;;;;;3.22;0.80;;;;;;;;;;2072977;28;20029;-72
2024/04/02 00:44:08;;;;;;;4.72;1.50;;;;;;;;;;2072691;28;20603;-71
2024/04/02 00:45:10;;;;;;;2.67;0.88;;;;;;;;;;2072974;28;20030;-72
2024/04/02 00:46:11;;;;;;;2.42;0.80;;;;;;;;;;2072538;28;20038;-73
2024/04/02 00:47:13;;;;;;;1.45;0.68;;;;;;;;;;2072568;28;20030;-73
2024/04/02 00:48:15;;;;;;;3.90;1.13;;;;;;;;;;2069779;28;20418;-74
2024/04/02 00:49:16;;;;;;;2.58;0.80;;;;;;;;;;2071847;28;20514;-73
2024/04/02 00:50:18;;;;;;;3.38;0.88;;;;;;;;;;2071367;28;20029;-74
2024/04/02 00:51:19;;;;;;;1.65;0.70;;;;;;;;;;2073027;28;20032;-74
2024/04/02 00:52:21;;;;;;;2.00;1.13;;;;;;;;;;2072503;28;20034;-75
2024/04/02 00:53:23;;;;;;;2.60;0.85;;;;;;;;;;2073035;28;20398;-74
2024/04/02 00:54:25;;;;;;;5.13;0.88;;;;;;;;;;2073077;28;20030;-75
2024/04/02 00:55:26;;;;;;;2.60;0.90;;;;;;;;;;2072974;28;20096;-75
2024/04/02 00:56:28;;;;;;;2.45;0.90;;;;;;;;;;2071694;28;20076;-75
2024/04/02 00:57:29;;;;;;;2.45;0.70;;;;;;;;;;2072199;28;20043;-73
2024/04/02 00:58:31;;;;;;;2.92;0.88;;;;;;;;;;2072326;28;20030;-75
2024/04/02 00:59:35;;;;;;;2.60;0.68;;;;;;;;;;2072210;28;20097;-77
2024/04/02 01:00:37;;;;;;;3.67;0.82;;;;;;;;;;2070230;28;20419;-74
2024/04/02 01:01:38;;;;;;;2.67;0.60;;;;;;;;;;2072973;28;20399;-77
2024/04/02 01:02:39;;;;;;;1.73;0.80;;;;;;;;;;2072968;28;20042;-78
2024/04/02 01:03:42;;;;;;;4.53;1.13;;;;;;;;;;2073063;28;20057;-75
2024/04/02 01:04:45;;;;;;;4.05;0.88;;;;;;;;;;2069417;28;20113;-77
2024/04/02 01:05:46;;;;;;;1.83;0.90;;;;;;;;;;2072981;28;20022;-77
2024/04/02 01:06:48;;;;;;;3.80;0.95;;;;;;;;;;2072881;28;20100;-74
2024/04/02 01:07:49;;;;;;;4.70;1.20;;;;;;;;;;2072876;28;20022;-76
2024/04/02 01:08:51;;;;;;;2.63;1.08;;;;;;;;;;2072333;28;20014;-75
2024/04/02 01:09:52;;;;;;;2.75;1.00;;;;;;;;;;2071146;28;20033;-76
2024/04/02 01:10:54;;;;;;;5.18;1.58;;;;;;;;;;2072452;28;20034;-75
2024/04/02 01:11:56;;;;;;;3.90;1.17;;;;;;;;;;2072640;28;20565;-74
2024/04/02 01:12:59;;;;;;;3.00;0.95;;;;;;;;;;2072374;28;20026;-78
2024/04/02 01:14:00;;;;;;;3.67;1.00;;;;;;;;;;2072804;28;20018;-74
2024/04/02 01:15:03;;;;;;;1.77;0.60;;;;;;;;;;2072960;28;20045;-75
2024/04/02 01:16:06;;;;;;;4.95;1.40;;;;;;;;;;2070660;28;20018;-77
2024/04/02 01:17:07;;;;;;;2.90;0.90;;;;;;;;;;2072831;28;20458;-74
2024/04/02 01:18:08;;;;;;;3.03;1.25;;;;;;;;;;2072813;28;20017;-75
2024/04/02 01:19:11;;;;;;;6.22;1.20;;;;;;;;;;2073001;28;20022;-78
2024/04/02 01:20:12;;;;;;;2.38;1.02;;;;;;;;;;2072820;28;20145;-78
2024/04/02 01:21:14;;;;;;;3.38;0.90;;;;;;;;;;2072792;28;20458;-79
2024/04/02 01:22:15;;;;;;;4.28;1.00;;;;;;;;;;2072334;28;20469;-78
2024/04/02 01:23:17;;;;;;;3.60;0.73;;;;;;;;;;2072792;28;20029;-73
2024/04/02 01:24:18;;;;;;;1.88;0.80;;;;;;;;;;2072904;28;20121;-78
2024/04/02 01:25:21;;;;;;;1.75;1.00;;;;;;;;;;2080381;28;20044;-75
2024/04/02 01:26:23;;;;;;;2.60;0.98;;;;;;;;;;2073700;28;20037;-74
2024/04/02 01:27:25;;;;;;;1.75;0.60;;;;;;;;;;2066005;28;20084;-75
2024/04/02 01:28:27;;;;;;;3.35;1.08;;;;;;;;;;2073948;28;20010;-79
2024/04/02 01:29:29;;;;;;;3.38;0.90;;;;;;;;;;2074549;28;20026;-78
2024/04/02 01:30:30;;;;;;;2.83;1.17;;;;;;;;;;2074499;28;20049;-78
2024/04/02 01:31:32;;;;;;;3.55;0.73;;;;;;;;;;2074677;28;20038;-76
2024/04/02 01:32:33;;;;;;;3.47;1.00;;;;;;;;;;2074429;28;20022;-73
2024/04/02 01:33:34;;;;;;;3.50;0.65;;;;;;;;;;2074307;28;20082;-75
2024/04/02 01:34:36;;;;;;;3.08;0.93;;;;;;;;;;2074549;28;20394;-77
2024/04/02 01:35:37;;;;;;;4.20;1.13;;;;;;;;;;2073632;28;20069;-76
2024/04/02 01:36:38;;;;;;;4.28;0.73;;;;;;;;;;2073847;28;20076;-75
2024/04/02 01:37:41;;;;;;;2.33;0.70;;;;;;;;;;2074470;28;20029;-75
2024/04/02 01:38:42;;;;;;;4.35;0.60;;;;;;;;;;2074456;28;20018;-74
2024/04/02 01:39:43;;;;;;;2.10;0.75;;;;;;;;;;2073383;28;20022;-78
2024/04/02 01:40:47;;;;;;;3.58;0.85;;;;;;;;;;2073803;28;20022;-74
2024/04/02 01:41:48;;;;;;;2.53;0.57;;;;;;;;;;2073884;28;20483;-76
2024/04/02 01:42:49;;;;;;;2.20;0.77;;;;;;;;;;2073807;28;20041;-74
2024/04/02 01:43:51;;;;;;;2.83;0.47;;;;;;;;;;2073620;28;20026;-74
2024/04/02 01:44:52;;;;;;;5.35;0.77;;;;;;;;;;2074117;28;20037;-73
2024/04/02 01:45:54;;;;;;;2.45;0.80;;;;;;;;;;2071833;28;20091;-74
2024/04/02 01:46:55;;;;;;;4.50;0.60;;;;;;;;;;2074275;28;20019;-73
2024/04/02 01:47:57;;;;;;;2.72;0.93;;;;;;;;;;2074277;28;20426;-75
2024/04/02 01:48:58;;;;;;;3.03;0.70;;;;;;;;;;2074403;28;20033;-74
2024/04/02 01:50:00;;;;;;;2.10;0.68;;;;;;;;;;2074338;28;20034;-76
2024/04/02 01:51:01;;;;;;;4.32;0.80;;;;;;;;;;2074009;28;20061;-76
2024/04/02 01:52:02;;;;;;;2.85;0.70;;;;;;;;;;2073747;28;20029;-79
2024/04/02 01:53:04;;;;;;;1.33;0.52;;;;;;;;;;2074678;28;20084;-76
2024/04/02 01:54:05;;;;;;;1.98;0.57;;;;;;;;;;2075972;28;20029;-75
2024/04/02 01:55:06;;;;;;;4.95;0.90;;;;;;;;;;2076497;28;20493;-74
2024/04/02 01:56:08;;;;;;;3.05;0.60;;;;;;;;;;2076195;28;20018;-74
2024/04/02 01:57:09;;;;;;;2.72;0.63;;;;;;;;;;2076215;28;20104;-74
2024/04/02 01:58:10;;;;;;;3.20;0.70;;;;;;;;;;2075352;28;20062;-79
2024/04/02 01:59:12;;;;;;;1.60;0.50;;;;;;;;;;2074561;28;20018;-75
2024/04/02 02:00:14;;;;;;;2.67;0.47;;;;;;;;;;2071530;28;20030;-79
2024/04/02 02:01:15;;;;;;;1.40;0.63;;;;;;;;;;2074304;28;20101;-77
2024/04/02 02:02:17;;;;;;;3.88;0.57;;;;;;;;;;2074297;28;20018;-75
2024/04/02 02:03:18;;;;;;;0.85;0.45;;;;;;;;;;2074307;28;20018;-74
2024/04/02 02:04:20;;;;;;;1.92;0.77;;;;;;;;;;2074233;28;20038;-73
2024/04/02 02:05:21;;;;;;;1.83;0.60;;;;;;;;;;2074263;28;20030;-71
2024/04/02 02:06:22;;;;;;;2.88;0.70;;;;;;;;;;2073562;28;20041;-73
2024/04/02 02:07:24;;;;;;;2.65;0.60;;;;;;;;;;2073552;28;20026;-73
2024/04/02 02:08:25;;;;;;;1.27;0.55;;;;;;;;;;2074105;28;20491;-75
2024/04/02 02:09:27;;;;;;;5.68;0.98;;;;;;;;;;2073921;28;20037;-75
2024/04/02 02:10:29;;;;;;;2.83;0.70;;;;;;;;;;2073588;28;20036;-72
2024/04/02 02:11:31;;;;;;;1.38;0.60;;;;;;;;;;2074172;28;20113;-73
2024/04/02 02:12:33;;;;;;;4.72;1.13;;;;;;;;;;2074160;28;20076;-72
2024/04/02 02:13:37;;;;;;;5.05;1.10;;;;;;;;;;2074126;28;20065;-73
2024/04/02 02:14:38;;;;;;;6.45;1.58;;;;;;;;;;2073958;28;20048;-73
2024/04/02 02:15:40;;;;;;;3.88;0.90;;;;;;;;;;2073999;28;20014;-73
2024/04/02 02:16:41;;;;;;;2.72;0.80;;;;;;;;;;2073923;28;20049;-73
2024/04/02 02:17:46;;;;;;;4.13;1.02;;;;;;;;;;2074010;28;20054;-75
2024/04/02 02:18:48;;;;;;;6.32;0.70;;;;;;;;;;2072552;28;20026;-77
2024/04/02 02:19:49;;;;;;;3.50;1.05;;;;;;;;;;2074206;28;20022;-76
2024/04/02 02:20:50;;;;;;;3.25;0.85;;;;;;;;;;2074093;28;20026;-74
2024/04/02 02:21:52;;;;;;;2.13;0.63;;;;;;;;;;2074159;28;20030;-74
2024/04/02 02:22:53;;;;;;;4.07;0.82;;;;;;;;;;2071375;28;20083;-75
2024/04/02 02:23:54;;;;;;;2.72;0.70;;;;;;;;;;2074094;28;20076;-74
2024/04/02 02:24:56;;;;;;;1.40;0.63;;;;;;;;;;2074012;28;20510;-72
2024/04/02 02:25:57;;;;;;;3.78;0.90;;;;;;;;;;2073921;28;20482;-74
2024/04/02 02:26:59;;;;;;;2.20;0.80;;;;;;;;;;2073989;28;20048;-74
2024/04/02 02:28:00;;;;;;;3.42;0.70;;;;;;;;;;2073367;28;20557;-73
2024/04/02 02:29:01;;;;;;;5.03;1.02;;;;;;;;;;2073399;28;20042;-75
2024/04/02 02:30:03;;;;;;;3.22;0.88;;;;;;;;;;2073810;28;20435;-73
2024/04/02 02:31:04;;;;;;;2.33;0.80;;;;;;;;;;2073979;28;20454;-74
2024/04/02 02:32:07;;;;;;;3.03;0.60;;;;;;;;;;2073906;28;20026;-74
2024/04/02 02:33:08;;;;;;;2.65;1.00;;;;;;;;;;2073867;28;20028;-74
2024/04/02 02:34:09;;;;;;;1.33;0.60;;;;;;;;;;2073998;28;20025;-74
2024/04/02 02:35:11;;;;;;;1.95;0.63;;;;;;;;;;2073869;28;20526;-75
2024/04/02 02:36:12;;;;;;;1.73;0.60;;;;;;;;;;2073965;28;20021;-75
2024/04/02 02:37:13;;;;;;;3.97;0.70;;;;;;;;;;2073484;28;20519;-74
2024/04/02 02:38:15;;;;;;;4.28;0.70;;;;;;;;;;2073186;28;20026;-75
2024/04/02 02:39:16;;;;;;;3.25;0.80;;;;;;;;;;2073410;28;20029;-73
2024/04/02 02:40:18;;;;;;;3.70;0.90;;;;;;;;;;2072828;28;20025;-73
2024/04/02 02:41:19;;;;;;;3.75;0.82;;;;;;;;;;2073899;28;20028;-74
2024/04/02 02:42:23;;;;;;;2.95;1.20;;;;;;;;;;2073273;28;20018;-75
2024/04/02 02:43:24;;;;;;;1.50;0.90;;;;;;;;;;2070972;28;20025;-74
2024/04/02 02:44:27;;;;;;;4.68;1.10;;;;;;;;;;2073643;28;20128;-75
2024/04/02 02:45:29;;;;;;;2.75;1.00;;;;;;;;;;2073680;28;20029;-75
2024/04/02 02:46:30;;;;;;;3.85;0.70;;;;;;;;;;2073815;28;20029;-74
2024/04/02 02:47:32;;;;;;;1.98;0.70;;;;;;;;;;2073844;28;20010;-74
2024/04/02 02:48:33;;;;;;;3.92;0.90;;;;;;;;;;2073814;28;20037;-74
2024/04/02 02:49:34;;;;;;;4.60;1.23;;;;;;;;;;2073385;28;20391;-74
2024/04/02 02:50:36;;;;;;;2.70;0.70;;;;;;;;;;2073320;28;20041;-74
2024/04/02 02:51:37;;;;;;;3.60;1.08;;;;;;;;;;2073157;28;20014;-73
2024/04/02 02:52:39;;;;;;;3.45;0.77;;;;;;;;;;2073679;28;20029;-73
2024/04/02 02:53:41;;;;;;;2.72;0.85;;;;;;;;;;2073848;28;20025;-73
2024/04/02 02:54:42;;;;;;;5.35;1.05;;;;;;;;;;2073797;28;20029;-75
2024/04/02 02:55:43;;;;;;;1.98;0.80;;;;;;;;;;2070445;28;20449;-75
2024/04/02 02:56:45;;;;;;;5.97;1.40;;;;;;;;;;2072257;28;20018;-74
2024/04/02 02:57:47;;;;;;;2.65;1.05;;;;;;;;;;2081306;28;20130;-72
2024/04/02 02:58:50;;;;;;;3.22;1.27;;;;;;;;;;2081084;28;20018;-74
2024/04/02 02:59:52;;;;;;;2.80;0.80;;;;;;;;;;2073591;28;20029;-75
2024/04/02 03:00:53;;;;;;;4.13;1.10;;;;;;;;;;2068246;28;20034;-76
2024/04/02 03:01:55;;;;;;;5.15;1.00;;;;;;;;;;2073880;28;20026;-74
2024/04/02 03:02:56;;;;;;;2.75;1.30;;;;;;;;;;2073732;28;20060;-75
2024/04/02 03:03:58;;;;;;;2.78;1.30;;;;;;;;;;2073076;28;20118;-72
2024/04/02 03:04:59;;;;;;;2.60;1.23;;;;;;;;;;2073053;28;20029;-75
2024/04/02 03:06:01;;;;;;;5.20;1.40;;;;;;;;;;2073599;28;20026;-75
2024/04/02 03:07:02;;;;;;;4.15;1.38;;;;;;;;;;2073776;28;20049;-73
2024/04/02 03:08:04;;;;;;;5.45;1.42;;;;;;;;;;2073671;28;20055;-75
2024/04/02 03:09:08;;;;;;;7.03;1.85;;;;;;;;;;2073076;28;20021;-76
2024/04/02 03:10:10;;;;;;;6.00;1.83;;;;;;;;;;2072092;28;20018;-74
2024/04/02 03:11:11;;;;;;;5.15;2.20;;;;;;;;;;2073686;28;20455;-73
2024/04/02 03:12:12;;;;;;;3.65;1.90;;;;;;;;;;2073531;28;20025;-74
2024/04/02 03:13:14;;;;;;;4.07;1.63;;;;;;;;;;2073097;28;20033;-74
2024/04/02 03:14:15;;;;;;;4.95;2.00;;;;;;;;;;2073174;28;20033;-75
2024/04/02 03:15:17;;;;;;;4.15;1.73;;;;;;;;;;2073665;28;20038;-75
2024/04/02 03:16:21;;;;;;;5.50;2.13;;;;;;;;;;2073714;28;20022;-75
2024/04/02 03:17:23;;;;;;;5.18;2.00;;;;;;;;;;2073855;28;20499;-76
2024/04/02 03:18:24;;;;;;;7.88;2.75;;;;;;;;;;2073770;28;20129;-73
2024/04/02 03:19:25;;;;;;;9.70;2.72;;;;;;;;;;2073723;28;20061;-74
2024/04/02 03:20:27;;;;;;;5.55;2.83;;;;;;;;;;2073196;28;20022;-74
2024/04/02 03:21:28;;;;;;;7.72;2.83;;;;;;;;;;2072981;28;20025;-75
2024/04/02 03:22:30;;;;;;;6.25;2.50;;;;;;;;;;2073579;28;20380;-74
2024/04/02 03:23:31;;;;;;;7.43;2.45;;;;;;;;;;2073830;28;20064;-74
2024/04/02 03:24:33;;;;;;;7.05;2.35;;;;;;;;;;2073702;28;20112;-75
2024/04/02 03:25:34;;;;;;;8.07;2.55;;;;;;;;;;2073679;28;20021;-75
2024/04/02 03:26:35;;;;;;;9.15;2.55;;;;;;;;;;2073766;28;20510;-75
2024/04/02 03:27:37;;;;;;;6.60;2.38;;;;;;;;;;2073652;28;20398;-75
2024/04/02 03:28:39;;;;;;;6.40;2.60;;;;;;;;;;2073615;28;20026;-75
2024/04/02 03:29:40;;;;;;;7.97;2.85;;;;;;;;;;2073759;28;20108;-74
2024/04/02 03:30:41;;;;;;;5.32;2.33;;;;;;;;;;2072939;28;20057;-75
2024/04/02 03:31:44;;;;;;;5.55;2.30;;;;;;;;;;2072881;28;20022;-75
2024/04/02 03:32:46;;;;;;;8.27;2.40;;;;;;;;;;2073606;28;20028;-77
2024/04/02 03:33:47;;;;;;;7.68;2.53;;;;;;;;;;2073647;28;20030;-76
2024/04/02 03:34:49;;;;;;;5.28;2.47;;;;;;;;;;2072967;28;20045;-76
2024/04/02 03:35:50;;;;;;;7.90;2.65;;;;;;;;;;2072876;28;20471;-77
2024/04/02 03:36:52;;;;;;;6.43;2.78;;;;;;;;;;2073663;28;20038;-74
2024/04/02 03:37:53;;;;;;;6.53;2.78;;;;;;;;;;2073413;28;20022;-77
2024/04/02 03:38:54;;;;;;;7.05;2.83;;;;;;;;;;2073691;28;20463;-74
2024/04/02 03:39:56;;;;;;;7.25;2.63;;;;;;;;;;2072456;28;20029;-74
2024/04/02 03:41:07;;;;;;;6.18;2.55;;;;;;;;;;2073495;28;20017;-75
2024/04/02 03:42:08;;;;;;;7.05;3.20;;;;;;;;;;2072170;28;20433;-74
2024/04/02 03:43:11;;;;;;;7.70;2.22;;;;;;;;;;2073441;28;20495;-74
2024/04/02 03:44:12;;;;;;;5.30;2.40;;;;;;;;;;2073173;28;20030;-75
2024/04/02 03:45:14;;;;;;;5.63;2.55;;;;;;;;;;2069747;28;20026;-77
2024/04/02 03:46:15;;;;;;;6.68;2.88;;;;;;;;;;2073404;28;20033;-75
2024/04/02 03:47:17;;;;;;;6.38;2.72;;;;;;;;;;2073663;28;20026;-77
2024/04/02 03:48:18;;;;;;;5.80;2.90;;;;;;;;;;2072815;28;20030;-79
2024/04/02 03:49:20;;;;;;;7.35;2.85;;;;;;;;;;2072634;28;20072;-77
2024/04/02 03:50:21;;;;;;;3.90;2.10;;;;;;;;;;2072733;28;20532;-74
2024/04/02 03:51:23;;;;;;;6.43;2.45;;;;;;;;;;2073436;28;20022;-77
2024/04/02 03:52:25;;;;;;;7.85;2.95;;;;;;;;;;2073431;28;20038;-77
2024/04/02 03:53:27;;;;;;;6.40;2.53;;;;;;;;;;2073295;28;20037;-74
2024/04/02 03:54:28;;;;;;;4.70;2.55;;;;;;;;;;2073362;28;20065;-77
2024/04/02 03:55:36;;;;;;;5.28;2.30;;;;;;;;;;2073378;28;20050;-75
2024/04/02 03:56:37;;;;;;;6.65;2.63;;;;;;;;;;2072136;28;20509;-73
2024/04/02 03:57:38;;;;;;;5.45;2.63;;;;;;;;;;2073371;28;20030;-74
2024/04/02 03:58:40;;;;;;;6.07;2.55;;;;;;;;;;2073319;28;20432;-77
2024/04/02 03:59:41;;;;;;;6.15;2.70;;;;;;;;;;2073278;28;20026;-74
2024/04/02 04:00:43;;;;;;;6.45;2.67;;;;;;;;;;2072361;28;20113;-77
2024/04/02 04:01:45;;;;;;;6.05;2.35;;;;;;;;;;2072526;28;20033;-77
2024/04/02 04:02:46;;;;;;;5.65;2.60;;;;;;;;;;2073189;28;20552;-77
2024/04/02 04:03:48;;;;;;;6.45;3.00;;;;;;;;;;2072622;28;20032;-76
2024/04/02 04:04:50;;;;;;;6.57;2.28;;;;;;;;;;2072440;28;20036;-76
2024/04/02 04:06:00;;;;;;;6.80;2.53;;;;;;;;;;2073297;28;20108;-75
2024/04/02 04:07:01;;;;;;;4.93;2.75;;;;;;;;;;2072820;28;20097;-76
2024/04/02 04:08:04;;;;;;;6.35;2.50;;;;;;;;;;2070215;28;20045;-76
2024/04/02 04:09:08;;;;;;;5.40;2.85;;;;;;;;;;2072531;28;20033;-74
2024/04/02 04:10:09;;;;;;;8.98;2.70;;;;;;;;;;2072135;28;20363;-77
2024/04/02 04:11:10;;;;;;;6.13;2.45;;;;;;;;;;2073217;28;20022;-76
2024/04/02 04:12:12;;;;;;;7.57;3.00;;;;;;;;;;2073136;28;20104;-74
2024/04/02 04:13:13;;;;;;;6.35;2.50;;;;;;;;;;2072607;28;20044;-75
2024/04/02 04:14:14;;;;;;;7.07;3.13;;;;;;;;;;2072525;28;20026;-74
2024/04/02 04:15:17;;;;;;;6.13;2.55;;;;;;;;;;2073220;28;20038;-76
2024/04/02 04:16:18;;;;;;;9.10;2.80;;;;;;;;;;2073098;28;20022;-74
2024/04/02 04:17:19;;;;;;;4.65;2.25;;;;;;;;;;2073322;28;20066;-74
2024/04/02 04:18:21;;;;;;;8.40;3.22;;;;;;;;;;2072783;28;20030;-75
2024/04/02 04:19:22;;;;;;;6.90;2.53;;;;;;;;;;2072552;28;20072;-74
2024/04/02 04:20:29;;;;;;;8.25;2.95;;;;;;;;;;2073259;28;20390;-74
2024/04/02 04:21:30;;;;;;;8.57;2.75;;;;;;;;;;2073202;28;20026;-75
2024/04/02 04:22:33;;;;;;;6.03;2.58;;;;;;;;;;2073131;28;20018;-76
2024/04/02 04:23:34;;;;;;;8.98;2.70;;;;;;;;;;2073083;28;20490;-74
2024/04/02 04:24:35;;;;;;;6.13;2.40;;;;;;;;;;2073165;28;20060;-75
2024/04/02 04:25:37;;;;;;;6.32;2.65;;;;;;;;;;2073151;28;20501;-75
2024/04/02 04:26:38;;;;;;;6.63;2.55;;;;;;;;;;2073089;28;20102;-73
2024/04/02 04:27:40;;;;;;;5.72;2.05;;;;;;;;;;2073114;28;20022;-73
2024/04/02 04:28:41;;;;;;;4.85;2.35;;;;;;;;;;2073150;28;20030;-75
2024/04/02 04:29:42;;;;;;;6.60;2.60;;;;;;;;;;2080721;28;20174;-74
2024/04/02 04:30:44;;;;;;;10.48;3.22;;;;;;;;;;2077750;28;20032;-75
2024/04/02 04:31:46;;;;;;;9.77;2.50;;;;;;;;;;2073094;28;20480;-78
2024/04/02 04:32:47;;;;;;;4.68;2.50;;;;;;;;;;2072995;28;20494;-74
2024/04/02 04:33:48;;;;;;;6.05;2.72;;;;;;;;;;2073044;28;20032;-78
2024/04/02 04:34:50;;;;;;;7.47;2.60;;;;;;;;;;2073052;28;20438;-73
2024/04/02 04:35:52;;;;;;;6.00;2.40;;;;;;;;;;2073099;28;20152;-75
2024/04/02 04:36:55;;;;;;;5.32;2.58;;;;;;;;;;2070575;28;20026;-77
2024/04/02 04:37:56;;;;;;;8.38;2.58;;;;;;;;;;2072995;28;20026;-76
2024/04/02 04:38:57;;;;;;;7.82;3.13;;;;;;;;;;2072433;28;20585;-75
2024/04/02 04:39:59;;;;;;;5.95;2.72;;;;;;;;;;2071433;28;20089;-76
2024/04/02 04:41:00;;;;;;;4.85;2.65;;;;;;;;;;2073005;28;20035;-72
2024/04/02 04:42:02;;;;;;;5.30;2.67;;;;;;;;;;2064183;28;20019;-79
2024/04/02 04:43:03;;;;;;;6.35;2.65;;;;;;;;;;2061735;28;20668;-74
2024/04/02 04:44:04;;;;;;;13.40;3.25;;;;;;;;;;2072664;28;20086;-76
2024/04/02 04:45:06;;;;;;;7.43;2.90;;;;;;;;;;2080628;28;20046;-76
2024/04/02 04:46:07;;;;;;;7.68;3.45;;;;;;;;;;2080096;28;20024;-74
2024/04/02 04:47:09;;;;;;;6.15;2.55;;;;;;;;;;2073039;28;20154;-74
2024/04/02 04:48:10;;;;;;;8.25;3.08;;;;;;;;;;2072388;28;20092;-76
2024/04/02 04:49:11;;;;;;;11.73;3.55;;;;;;;;;;2072326;28;20391;-75
2024/04/02 04:50:13;;;;;;;5.97;2.85;;;;;;;;;;2069338;28;20045;-75
2024/04/02 04:51:14;;;;;;;9.60;2.92;;;;;;;;;;2071282;28;20022;-74
2024/04/02 04:52:17;;;;;;;7.60;3.33;;;;;;;;;;2071695;28;20052;-73
2024/04/02 04:53:18;;;;;;;7.15;2.83;;;;;;;;;;2072484;28;20022;-76
2024/04/02 04:54:19;;;;;;;9.88;3.42;;;;;;;;;;2072310;28;20088;-75
2024/04/02 04:55:21;;;;;;;8.02;2.85;;;;;;;;;;2080269;28;20063;-78
2024/04/02 04:56:22;;;;;;;10.73;2.53;;;;;;;;;;2072181;28;20030;-75
2024/04/02 04:57:23;;;;;;;7.70;2.60;;;;;;;;;;2070383;28;20398;-77
2024/04/02 04:58:25;;;;;;;6.40;2.55;;;;;;;;;;2072427;28;20022;-75
2024/04/02 04:59:26;;;;;;;9.05;2.17;;;;;;;;;;2072580;28;20034;-76
2024/04/02 05:00:29;;;;;;;6.13;2.95;;;;;;;;;;2072202;28;20030;-76
2024/04/02 05:01:30;;;;;;;6.03;2.92;;;;;;;;;;2072512;28;20109;-73
2024/04/02 05:02:31;;;;;;;7.28;2.67;;;;;;;;;;2072908;28;20026;-74
2024/04/02 05:03:34;;;;;;;8.73;2.90;;;;;;;;;;2073980;28;20053;-75
2024/04/02 05:04:36;;;;;;;9.45;2.92;;;;;;;;;;2074133;28;20474;-74
2024/04/02 05:05:37;;;;;;;8.07;3.15;;;;;;;;;;2073725;28;20097;-73
2024/04/02 05:06:42;;;;;;;7.85;2.63;;;;;;;;;;2071842;28;20106;-77
2024/04/02 05:07:57;;;;;;;7.40;2.47;;;;;;;;;;2069843;28;20030;-76
2024/04/02 05:08:58;;;;;;;6.72;2.60;;;;;;;;;;2069135;28;20499;-75
2024/04/02 05:10:00;;;;;;;12.02;2.92;;;;;;;;;;2071438;28;20566;-77
2024/04/02 05:11:03;;;;;;;6.10;2.45;;;;;;;;;;2069156;28;20019;-77
2024/04/02 05:12:04;;;;;;;5.35;2.33;;;;;;;;;;2070220;28;20499;-79
2024/04/02 05:13:06;;;;;;;5.15;2.25;;;;;;;;;;2071225;28;20407;-77
2024/04/02 05:14:07;;;;;;;5.53;2.22;;;;;;;;;;2070614;28;20507;-78
2024/04/02 05:15:09;;;;;;;7.45;2.45;;;;;;;;;;2070073;28;20026;-72
2024/04/02 05:16:13;;;;;;;6.72;2.83;;;;;;;;;;2071266;28;20127;-74
2024/04/02 05:17:14;;;;;;;6.93;2.50;;;;;;;;;;2070470;28;20037;-76
2024/04/02 05:18:16;;;;;;;9.60;2.55;;;;;;;;;;2070971;28;20533;-76
2024/04/02 05:19:17;;;;;;;7.38;2.40;;;;;;;;;;2071518;28;20026;-74
2024/04/02 05:20:18;;;;;;;10.70;2.67;;;;;;;;;;2069822;28;20144;-74
2024/04/02 05:21:20;;;;;;;7.53;2.47;;;;;;;;;;2070133;28;20109;-75
2024/04/02 05:22:21;;;;;;;6.60;2.50;;;;;;;;;;2070903;28;20116;-72
2024/04/02 05:23:23;;;;;;;7.32;3.00;;;;;;;;;;2070174;28;20030;-74
2024/04/02 05:24:24;;;;;;;8.10;3.03;;;;;;;;;;2070397;28;20040;-75
2024/04/02 05:25:25;;;;;;;6.97;2.70;;;;;;;;;;2071605;28;20148;-74
2024/04/02 05:26:27;;;;;;;8.02;3.28;;;;;;;;;;2069722;28;20556;-75
2024/04/02 05:27:28;;;;;;;7.00;2.35;;;;;;;;;;2069861;28;20022;-72
2024/04/02 05:28:30;;;;;;;7.80;2.45;;;;;;;;;;2065744;28;20061;-72
2024/04/02 05:29:31;;;;;;;7.32;2.53;;;;;;;;;;2070294;28;20860;-73
2024/04/02 05:30:32;;;;;;;7.55;2.47;;;;;;;;;;2069901;28;20026;-73
2024/04/02 05:31:35;;;;;;;4.75;2.50;;;;;;;;;;2073098;28;20493;-74
2024/04/02 05:32:36;;;;;;;5.13;2.22;;;;;;;;;;2073018;28;20060;-72
2024/04/02 05:33:37;;;;;;;7.75;2.50;;;;;;;;;;2072563;28;20045;-72
2024/04/02 05:34:39;;;;;;;8.05;2.42;;;;;;;;;;2069644;28;20491;-73
2024/04/02 05:35:40;;;;;;;11.90;3.30;;;;;;;;;;2069663;28;20022;-75
2024/04/02 05:36:42;;;;;;;6.35;2.60;;;;;;;;;;2071072;28;20026;-73
2024/04/02 05:37:44;;;;;;;8.25;2.50;;;;;;;;;;2069097;28;20045;-74
2024/04/02 05:38:46;;;;;;;7.38;2.70;;;;;;;;;;2069633;28;20022;-75
2024/04/02 05:39:50;;;;;;;7.03;2.58;;;;;;;;;;2065555;28;20026;-71
2024/04/02 05:40:51;;;;;;;9.82;2.63;;;;;;;;;;2070365;28;20192;-75
2024/04/02 05:41:54;;;;;;;7.55;2.53;;;;;;;;;;2070251;28;20028;-72
2024/04/02 05:42:55;;;;;;;6.65;2.67;;;;;;;;;;2072031;28;20024;-72
2024/04/02 05:43:57;;;;;;;5.93;2.78;;;;;;;;;;2070434;28;20129;-71
2024/04/02 05:44:58;;;;;;;6.18;2.35;;;;;;;;;;2070286;28;20552;-69
2024/04/02 05:46:00;;;;;;;5.53;2.22;;;;;;;;;;2071712;28;20018;-72
2024/04/02 05:47:01;;;;;;;5.80;2.40;;;;;;;;;;2068760;28;20029;-73
2024/04/02 05:48:03;;;;;;;6.70;2.45;;;;;;;;;;2064947;28;20030;-70
2024/04/02 05:49:04;;;;;;;9.65;2.85;;;;;;;;;;2068897;28;20506;-71
2024/04/02 05:50:06;;;;;;;8.68;2.97;;;;;;;;;;2067057;28;20387;-72
2024/04/02 05:51:07;;;;;;;12.02;2.85;;;;;;;;;;2070648;28;20053;-71
2024/04/02 05:52:09;;;;;;;7.95;3.00;;;;;;;;;;2069367;28;20021;-72
2024/04/02 05:53:10;;;;;;;5.80;2.15;;;;;;;;;;2068428;28;20037;-71
2024/04/02 05:54:12;;;;;;;4.20;2.28;;;;;;;;;;2065419;28;20030;-72
2024/04/02 05:55:13;;;;;;;10.20;2.88;;;;;;;;;;2068917;28;20174;-70
2024/04/02 05:56:15;;;;;;;8.35;3.05;;;;;;;;;;2067221;28;20113;-70
2024/04/02 05:57:16;;;;;;;6.75;2.60;;;;;;;;;;2068329;28;20081;-69
2024/04/02 05:58:17;;;;;;;8.68;3.08;;;;;;;;;;2070911;28;20096;-72
2024/04/02 05:59:21;;;;;;;6.47;2.63;;;;;;;;;;2070802;28;20041;-69
2024/04/02 06:00:22;;;;;;;9.57;2.70;;;;;;;;;;2071646;28;20021;-70
2024/04/02 06:01:26;;;;;;;5.45;2.58;;;;;;;;;;2070837;28;20037;-70
2024/04/02 06:02:28;;;;;;;7.72;2.55;;;;;;;;;;2071467;28;20020;-74
2024/04/02 06:03:29;;;;;;;7.13;2.88;;;;;;;;;;2069765;28;20053;-70
2024/04/02 06:04:31;;;;;;;6.30;2.47;;;;;;;;;;2069913;28;20116;-68
2024/04/02 06:05:32;;;;;;;5.13;2.38;;;;;;;;;;2068718;28;20117;-65
2024/04/02 06:06:34;;;;;;;5.82;2.40;;;;;;;;;;2066394;28;20060;-64
2024/04/02 06:07:35;;;;;;;6.95;2.53;;;;;;;;;;2070895;28;20054;-65
2024/04/02 06:08:37;;;;;;;6.03;2.50;;;;;;;;;;2070084;28;20022;-65
2024/04/02 06:09:38;;;;;;;6.40;2.95;;;;;;;;;;2067513;28;20026;-65
2024/04/02 06:10:40;;;;;;;6.72;2.60;;;;;;;;;;2067064;28;20025;-66